sensor_id;sensor_type;location;lat;lon;timestamp;P1;durP1;ratioP1;P2;durP2;ratioP2
38465;SDS011;24244;51.950;5.902;2023-06-22T00:00:06;3.80;;;1.55;;
38465;SDS011;24244;51.950;5.902;2023-06-22T00:02:38;3.42;;;1.52;;
38465;SDS011;24244;51.950;5.902;2023-06-22T00:05:05;3.65;;;1.85;;
38465;SDS011;24244;51.950;5.902;2023-06-22T00:07:33;2.33;;;1.30;;
38465;SDS011;24244;51.950;5.902;2023-06-22T00:09:59;2.97;;;1.35;;
38465;SDS011;24244;51.950;5.902;2023-06-22T00:12:26;2.08;;;1.02;;
38465;SDS011;24244;51.950;5.902;2023-06-22T00:14:53;2.80;;;1.27;;
38465;SDS011;24244;51.950;5.902;2023-06-22T00:17:21;2.90;;;1.33;;
38465;SDS011;24244;51.950;5.902;2023-06-22T00:19:49;2.35;;;1.38;;
38465;SDS011;24244;51.950;5.902;2023-06-22T00:22:20;2.30;;;0.95;;
38465;SDS011;24244;51.950;5.902;2023-06-22T00:24:55;2.25;;;1.13;;
38465;SDS011;24244;51.950;5.902;2023-06-22T00:27:22;2.13;;;1.23;;
38465;SDS011;24244;51.950;5.902;2023-06-22T00:29:49;3.05;;;1.50;;
38465;SDS011;24244;51.950;5.902;2023-06-22T00:32:16;3.53;;;1.75;;
38465;SDS011;24244;51.950;5.902;2023-06-22T00:34:45;3.38;;;1.50;;
38465;SDS011;24244;51.950;5.902;2023-06-22T00:37:11;2.83;;;1.52;;
38465;SDS011;24244;51.950;5.902;2023-06-22T00:39:38;3.45;;;1.48;;
38465;SDS011;24244;51.950;5.902;2023-06-22T00:42:06;3.35;;;1.35;;
38465;SDS011;24244;51.950;5.902;2023-06-22T00:44:33;3.13;;;1.58;;
38465;SDS011;24244;51.950;5.902;2023-06-22T00:47:01;2.55;;;1.30;;
38465;SDS011;24244;51.950;5.902;2023-06-22T00:49:28;3.20;;;1.40;;
38465;SDS011;24244;51.950;5.902;2023-06-22T00:51:58;3.47;;;1.40;;
38465;SDS011;24244;51.950;5.902;2023-06-22T00:54:25;3.08;;;1.30;;
38465;SDS011;24244;51.950;5.902;2023-06-22T00:56:53;4.53;;;1.65;;
38465;SDS011;24244;51.950;5.902;2023-06-22T00:59:21;3.15;;;1.52;;
38465;SDS011;24244;51.950;5.902;2023-06-22T01:01:49;5.05;;;2.28;;
38465;SDS011;24244;51.950;5.902;2023-06-22T01:04:16;3.50;;;1.92;;
38465;SDS011;24244;51.950;5.902;2023-06-22T01:06:45;3.30;;;1.60;;
38465;SDS011;24244;51.950;5.902;2023-06-22T01:09:22;3.17;;;1.73;;
38465;SDS011;24244;51.950;5.902;2023-06-22T01:11:57;3.03;;;1.30;;
38465;SDS011;24244;51.950;5.902;2023-06-22T01:14:31;4.00;;;1.80;;
38465;SDS011;24244;51.950;5.902;2023-06-22T01:17:02;3.15;;;1.35;;
38465;SDS011;24244;51.950;5.902;2023-06-22T01:19:35;4.13;;;1.85;;
38465;SDS011;24244;51.950;5.902;2023-06-22T01:22:08;3.53;;;1.73;;
38465;SDS011;24244;51.950;5.902;2023-06-22T01:24:44;2.92;;;1.70;;
38465;SDS011;24244;51.950;5.902;2023-06-22T01:27:21;4.00;;;1.90;;
38465;SDS011;24244;51.950;5.902;2023-06-22T01:30:00;3.85;;;1.92;;
38465;SDS011;24244;51.950;5.902;2023-06-22T01:32:31;3.60;;;1.55;;
38465;SDS011;24244;51.950;5.902;2023-06-22T01:35:01;3.65;;;2.13;;
38465;SDS011;24244;51.950;5.902;2023-06-22T01:37:30;5.82;;;2.20;;
38465;SDS011;24244;51.950;5.902;2023-06-22T01:39:59;3.15;;;1.48;;
38465;SDS011;24244;51.950;5.902;2023-06-22T01:42:27;3.10;;;1.40;;
38465;SDS011;24244;51.950;5.902;2023-06-22T01:44:57;2.97;;;1.60;;
38465;SDS011;24244;51.950;5.902;2023-06-22T01:47:27;2.40;;;1.23;;
38465;SDS011;24244;51.950;5.902;2023-06-22T01:49:54;3.20;;;1.70;;
38465;SDS011;24244;51.950;5.902;2023-06-22T01:52:21;3.58;;;1.73;;
38465;SDS011;24244;51.950;5.902;2023-06-22T01:54:48;3.80;;;2.03;;
38465;SDS011;24244;51.950;5.902;2023-06-22T01:57:15;3.28;;;1.95;;
38465;SDS011;24244;51.950;5.902;2023-06-22T01:59:44;4.93;;;1.90;;
38465;SDS011;24244;51.950;5.902;2023-06-22T02:02:16;3.90;;;2.20;;
38465;SDS011;24244;51.950;5.902;2023-06-22T02:04:50;4.22;;;1.92;;
38465;SDS011;24244;51.950;5.902;2023-06-22T02:07:21;2.85;;;1.50;;
38465;SDS011;24244;51.950;5.902;2023-06-22T02:09:51;3.45;;;1.77;;
38465;SDS011;24244;51.950;5.902;2023-06-22T02:12:22;3.33;;;1.55;;
38465;SDS011;24244;51.950;5.902;2023-06-22T02:14:51;3.17;;;1.58;;
38465;SDS011;24244;51.950;5.902;2023-06-22T02:17:19;3.92;;;1.67;;
38465;SDS011;24244;51.950;5.902;2023-06-22T02:19:47;3.17;;;1.67;;
38465;SDS011;24244;51.950;5.902;2023-06-22T02:22:14;3.97;;;1.70;;
38465;SDS011;24244;51.950;5.902;2023-06-22T02:24:41;2.83;;;1.55;;
38465;SDS011;24244;51.950;5.902;2023-06-22T02:27:13;4.20;;;1.88;;
38465;SDS011;24244;51.950;5.902;2023-06-22T02:29:40;4.38;;;2.22;;
38465;SDS011;24244;51.950;5.902;2023-06-22T02:32:07;5.10;;;2.13;;
38465;SDS011;24244;51.950;5.902;2023-06-22T02:34:34;3.30;;;1.67;;
38465;SDS011;24244;51.950;5.902;2023-06-22T02:37:04;4.13;;;1.75;;
38465;SDS011;24244;51.950;5.902;2023-06-22T02:39:31;2.83;;;1.60;;
38465;SDS011;24244;51.950;5.902;2023-06-22T02:41:58;4.82;;;2.10;;
38465;SDS011;24244;51.950;5.902;2023-06-22T02:44:25;2.67;;;1.27;;
38465;SDS011;24244;51.950;5.902;2023-06-22T02:46:52;2.97;;;1.92;;
38465;SDS011;24244;51.950;5.902;2023-06-22T02:49:20;2.88;;;1.60;;
38465;SDS011;24244;51.950;5.902;2023-06-22T02:51:47;3.45;;;1.80;;
38465;SDS011;24244;51.950;5.902;2023-06-22T02:54:16;3.35;;;1.30;;
38465;SDS011;24244;51.950;5.902;2023-06-22T02:56:43;3.05;;;1.40;;
38465;SDS011;24244;51.950;5.902;2023-06-22T02:59:10;3.88;;;1.92;;
38465;SDS011;24244;51.950;5.902;2023-06-22T03:01:37;5.40;;;2.50;;
38465;SDS011;24244;51.950;5.902;2023-06-22T03:04:06;4.47;;;2.60;;
38465;SDS011;24244;51.950;5.902;2023-06-22T03:06:34;3.97;;;2.50;;
38465;SDS011;24244;51.950;5.902;2023-06-22T03:09:02;5.15;;;2.67;;
38465;SDS011;24244;51.950;5.902;2023-06-22T03:11:33;4.80;;;2.70;;
38465;SDS011;24244;51.950;5.902;2023-06-22T03:14:00;4.25;;;2.65;;
38465;SDS011;24244;51.950;5.902;2023-06-22T03:16:28;4.47;;;2.92;;
38465;SDS011;24244;51.950;5.902;2023-06-22T03:18:57;5.80;;;2.58;;
38465;SDS011;24244;51.950;5.902;2023-06-22T03:21:24;4.03;;;2.80;;
38465;SDS011;24244;51.950;5.902;2023-06-22T03:23:53;4.88;;;2.80;;
38465;SDS011;24244;51.950;5.902;2023-06-22T03:26:21;6.72;;;3.78;;
38465;SDS011;24244;51.950;5.902;2023-06-22T03:28:49;4.72;;;2.75;;
38465;SDS011;24244;51.950;5.902;2023-06-22T03:31:16;5.40;;;3.80;;
38465;SDS011;24244;51.950;5.902;2023-06-22T03:33:48;5.45;;;3.45;;
38465;SDS011;24244;51.950;5.902;2023-06-22T03:36:16;5.60;;;3.22;;
38465;SDS011;24244;51.950;5.902;2023-06-22T03:38:47;6.22;;;4.10;;
38465;SDS011;24244;51.950;5.902;2023-06-22T03:41:14;8.02;;;5.20;;
38465;SDS011;24244;51.950;5.902;2023-06-22T03:43:42;7.45;;;4.97;;
38465;SDS011;24244;51.950;5.902;2023-06-22T03:46:10;8.15;;;4.63;;
38465;SDS011;24244;51.950;5.902;2023-06-22T03:48:37;6.93;;;4.63;;
38465;SDS011;24244;51.950;5.902;2023-06-22T03:51:05;6.38;;;4.45;;
38465;SDS011;24244;51.950;5.902;2023-06-22T03:53:32;6.28;;;3.95;;
38465;SDS011;24244;51.950;5.902;2023-06-22T03:55:59;9.23;;;5.05;;
38465;SDS011;24244;51.950;5.902;2023-06-22T03:58:26;8.07;;;5.50;;
38465;SDS011;24244;51.950;5.902;2023-06-22T04:00:53;7.38;;;4.95;;
38465;SDS011;24244;51.950;5.902;2023-06-22T04:03:21;8.02;;;5.25;;
38465;SDS011;24244;51.950;5.902;2023-06-22T04:05:48;8.48;;;5.80;;
38465;SDS011;24244;51.950;5.902;2023-06-22T04:08:15;14.27;;;7.32;;
38465;SDS011;24244;51.950;5.902;2023-06-22T04:10:42;10.65;;;6.45;;
38465;SDS011;24244;51.950;5.902;2023-06-22T04:13:10;9.73;;;6.15;;
38465;SDS011;24244;51.950;5.902;2023-06-22T04:15:37;8.63;;;5.32;;
38465;SDS011;24244;51.950;5.902;2023-06-22T04:18:04;7.63;;;4.78;;
38465;SDS011;24244;51.950;5.902;2023-06-22T04:20:32;8.85;;;5.25;;
38465;SDS011;24244;51.950;5.902;2023-06-22T04:23:00;10.32;;;5.95;;
38465;SDS011;24244;51.950;5.902;2023-06-22T04:25:26;9.55;;;6.45;;
38465;SDS011;24244;51.950;5.902;2023-06-22T04:27:53;10.00;;;6.13;;
38465;SDS011;24244;51.950;5.902;2023-06-22T04:30:20;7.80;;;4.88;;
38465;SDS011;24244;51.950;5.902;2023-06-22T04:32:48;9.00;;;4.93;;
38465;SDS011;24244;51.950;5.902;2023-06-22T04:35:26;8.48;;;5.55;;
38465;SDS011;24244;51.950;5.902;2023-06-22T04:37:58;10.38;;;6.85;;
38465;SDS011;24244;51.950;5.902;2023-06-22T04:40:25;10.43;;;6.90;;
38465;SDS011;24244;51.950;5.902;2023-06-22T04:42:52;11.05;;;7.32;;
38465;SDS011;24244;51.950;5.902;2023-06-22T04:45:20;12.95;;;7.40;;
38465;SDS011;24244;51.950;5.902;2023-06-22T04:47:47;11.23;;;7.18;;
38465;SDS011;24244;51.950;5.902;2023-06-22T04:50:15;12.77;;;7.72;;
38465;SDS011;24244;51.950;5.902;2023-06-22T04:52:41;12.20;;;9.05;;
38465;SDS011;24244;51.950;5.902;2023-06-22T04:55:09;13.50;;;8.93;;
38465;SDS011;24244;51.950;5.902;2023-06-22T04:57:39;12.35;;;8.07;;
38465;SDS011;24244;51.950;5.902;2023-06-22T05:00:06;9.60;;;7.35;;
38465;SDS011;24244;51.950;5.902;2023-06-22T05:02:43;9.45;;;5.97;;
38465;SDS011;24244;51.950;5.902;2023-06-22T05:05:12;11.20;;;7.15;;
38465;SDS011;24244;51.950;5.902;2023-06-22T05:07:43;13.43;;;9.35;;
38465;SDS011;24244;51.950;5.902;2023-06-22T05:10:12;11.90;;;7.20;;
38465;SDS011;24244;51.950;5.902;2023-06-22T05:12:39;11.50;;;6.78;;
38465;SDS011;24244;51.950;5.902;2023-06-22T05:15:07;10.63;;;7.13;;
38465;SDS011;24244;51.950;5.902;2023-06-22T05:17:35;11.90;;;8.43;;
38465;SDS011;24244;51.950;5.902;2023-06-22T05:20:02;20.67;;;13.15;;
38465;SDS011;24244;51.950;5.902;2023-06-22T05:22:32;14.98;;;9.52;;
38465;SDS011;24244;51.950;5.902;2023-06-22T05:25:00;14.43;;;9.40;;
38465;SDS011;24244;51.950;5.902;2023-06-22T05:27:28;13.30;;;8.43;;
38465;SDS011;24244;51.950;5.902;2023-06-22T05:29:55;15.32;;;10.20;;
38465;SDS011;24244;51.950;5.902;2023-06-22T05:32:22;12.02;;;8.25;;
38465;SDS011;24244;51.950;5.902;2023-06-22T05:34:49;20.08;;;13.40;;
38465;SDS011;24244;51.950;5.902;2023-06-22T05:37:15;12.25;;;8.90;;
38465;SDS011;24244;51.950;5.902;2023-06-22T05:39:42;12.85;;;8.43;;
38465;SDS011;24244;51.950;5.902;2023-06-22T05:42:09;12.60;;;8.25;;
38465;SDS011;24244;51.950;5.902;2023-06-22T05:44:38;15.48;;;9.85;;
38465;SDS011;24244;51.950;5.902;2023-06-22T05:47:07;12.23;;;8.20;;
38465;SDS011;24244;51.950;5.902;2023-06-22T05:49:34;15.27;;;10.35;;
38465;SDS011;24244;51.950;5.902;2023-06-22T05:52:00;12.25;;;7.90;;
38465;SDS011;24244;51.950;5.902;2023-06-22T05:54:28;12.63;;;6.97;;
38465;SDS011;24244;51.950;5.902;2023-06-22T05:56:56;9.82;;;6.63;;
38465;SDS011;24244;51.950;5.902;2023-06-22T05:59:23;9.73;;;6.55;;
38465;SDS011;24244;51.950;5.902;2023-06-22T06:01:51;9.00;;;5.80;;
38465;SDS011;24244;51.950;5.902;2023-06-22T06:04:18;9.95;;;7.10;;
38465;SDS011;24244;51.950;5.902;2023-06-22T06:06:46;9.48;;;5.60;;
38465;SDS011;24244;51.950;5.902;2023-06-22T06:09:13;10.57;;;6.82;;
38465;SDS011;24244;51.950;5.902;2023-06-22T06:11:40;9.70;;;6.40;;
38465;SDS011;24244;51.950;5.902;2023-06-22T06:14:07;9.55;;;5.63;;
38465;SDS011;24244;51.950;5.902;2023-06-22T06:16:34;9.13;;;6.30;;
38465;SDS011;24244;51.950;5.902;2023-06-22T06:19:02;7.53;;;5.55;;
38465;SDS011;24244;51.950;5.902;2023-06-22T06:21:29;7.97;;;5.57;;
38465;SDS011;24244;51.950;5.902;2023-06-22T06:23:56;8.60;;;5.75;;
38465;SDS011;24244;51.950;5.902;2023-06-22T06:26:23;10.55;;;6.43;;
38465;SDS011;24244;51.950;5.902;2023-06-22T06:28:55;9.73;;;6.80;;
38465;SDS011;24244;51.950;5.902;2023-06-22T06:31:22;8.82;;;6.05;;
38465;SDS011;24244;51.950;5.902;2023-06-22T06:33:49;9.85;;;6.25;;
38465;SDS011;24244;51.950;5.902;2023-06-22T06:36:17;9.07;;;6.68;;
38465;SDS011;24244;51.950;5.902;2023-06-22T06:38:46;9.73;;;6.68;;
38465;SDS011;24244;51.950;5.902;2023-06-22T06:41:13;11.35;;;7.22;;
38465;SDS011;24244;51.950;5.902;2023-06-22T06:43:41;11.93;;;6.97;;
38465;SDS011;24244;51.950;5.902;2023-06-22T06:46:11;8.45;;;6.40;;
38465;SDS011;24244;51.950;5.902;2023-06-22T06:48:38;9.98;;;6.95;;
38465;SDS011;24244;51.950;5.902;2023-06-22T06:51:06;10.48;;;7.13;;
38465;SDS011;24244;51.950;5.902;2023-06-22T06:53:37;9.10;;;6.05;;
38465;SDS011;24244;51.950;5.902;2023-06-22T06:56:04;9.27;;;6.78;;
38465;SDS011;24244;51.950;5.902;2023-06-22T06:58:31;9.85;;;6.38;;
38465;SDS011;24244;51.950;5.902;2023-06-22T07:00:59;8.73;;;5.75;;
38465;SDS011;24244;51.950;5.902;2023-06-22T07:03:26;7.85;;;5.35;;
38465;SDS011;24244;51.950;5.902;2023-06-22T07:05:52;10.02;;;6.70;;
38465;SDS011;24244;51.950;5.902;2023-06-22T07:08:19;8.20;;;5.70;;
38465;SDS011;24244;51.950;5.902;2023-06-22T07:10:48;8.38;;;5.88;;
38465;SDS011;24244;51.950;5.902;2023-06-22T07:13:17;10.13;;;5.90;;
38465;SDS011;24244;51.950;5.902;2023-06-22T07:15:44;8.63;;;5.72;;
38465;SDS011;24244;51.950;5.902;2023-06-22T07:18:11;9.27;;;6.60;;
38465;SDS011;24244;51.950;5.902;2023-06-22T07:20:39;9.80;;;5.63;;
38465;SDS011;24244;51.950;5.902;2023-06-22T07:23:07;7.78;;;5.30;;
38465;SDS011;24244;51.950;5.902;2023-06-22T07:25:35;8.43;;;6.18;;
38465;SDS011;24244;51.950;5.902;2023-06-22T07:28:04;9.85;;;5.35;;
38465;SDS011;24244;51.950;5.902;2023-06-22T07:30:32;8.77;;;5.85;;
38465;SDS011;24244;51.950;5.902;2023-06-22T07:33:00;10.35;;;6.78;;
38465;SDS011;24244;51.950;5.902;2023-06-22T07:35:30;6.95;;;4.97;;
38465;SDS011;24244;51.950;5.902;2023-06-22T07:37:57;9.30;;;5.90;;
38465;SDS011;24244;51.950;5.902;2023-06-22T07:40:24;7.35;;;5.20;;
38465;SDS011;24244;51.950;5.902;2023-06-22T07:42:51;7.78;;;5.22;;
38465;SDS011;24244;51.950;5.902;2023-06-22T07:45:20;6.55;;;4.70;;
38465;SDS011;24244;51.950;5.902;2023-06-22T07:47:47;7.22;;;4.72;;
38465;SDS011;24244;51.950;5.902;2023-06-22T07:50:15;8.25;;;5.90;;
38465;SDS011;24244;51.950;5.902;2023-06-22T07:52:41;9.20;;;5.97;;
38465;SDS011;24244;51.950;5.902;2023-06-22T07:55:08;7.15;;;5.47;;
38465;SDS011;24244;51.950;5.902;2023-06-22T07:57:35;9.73;;;6.63;;
38465;SDS011;24244;51.950;5.902;2023-06-22T08:00:03;14.63;;;8.32;;
38465;SDS011;24244;51.950;5.902;2023-06-22T08:02:47;9.98;;;6.65;;
38465;SDS011;24244;51.950;5.902;2023-06-22T08:05:14;8.25;;;5.90;;
38465;SDS011;24244;51.950;5.902;2023-06-22T08:08:00;8.02;;;5.20;;
38465;SDS011;24244;51.950;5.902;2023-06-22T08:10:27;9.48;;;5.63;;
38465;SDS011;24244;51.950;5.902;2023-06-22T08:12:55;7.82;;;4.68;;
38465;SDS011;24244;51.950;5.902;2023-06-22T08:15:21;7.70;;;4.88;;
38465;SDS011;24244;51.950;5.902;2023-06-22T08:17:50;5.18;;;3.63;;
38465;SDS011;24244;51.950;5.902;2023-06-22T08:20:17;7.15;;;4.80;;
38465;SDS011;24244;51.950;5.902;2023-06-22T08:22:43;5.70;;;3.88;;
38465;SDS011;24244;51.950;5.902;2023-06-22T08:25:12;8.57;;;5.03;;
38465;SDS011;24244;51.950;5.902;2023-06-22T08:27:39;7.53;;;4.72;;
38465;SDS011;24244;51.950;5.902;2023-06-22T08:30:07;7.68;;;5.20;;
38465;SDS011;24244;51.950;5.902;2023-06-22T08:32:37;6.35;;;4.15;;
38465;SDS011;24244;51.950;5.902;2023-06-22T08:35:06;5.97;;;3.80;;
38465;SDS011;24244;51.950;5.902;2023-06-22T08:37:35;5.22;;;3.35;;
38465;SDS011;24244;51.950;5.902;2023-06-22T08:40:03;7.30;;;4.47;;
38465;SDS011;24244;51.950;5.902;2023-06-22T08:42:31;7.45;;;4.20;;
38465;SDS011;24244;51.950;5.902;2023-06-22T08:45:00;8.02;;;5.68;;
38465;SDS011;24244;51.950;5.902;2023-06-22T08:47:27;6.72;;;4.18;;
38465;SDS011;24244;51.950;5.902;2023-06-22T08:49:54;7.55;;;4.40;;
38465;SDS011;24244;51.950;5.902;2023-06-22T08:52:23;5.50;;;3.35;;
38465;SDS011;24244;51.950;5.902;2023-06-22T08:54:53;5.10;;;3.38;;
38465;SDS011;24244;51.950;5.902;2023-06-22T08:57:20;4.75;;;3.50;;
38465;SDS011;24244;51.950;5.902;2023-06-22T08:59:47;6.57;;;3.90;;
38465;SDS011;24244;51.950;5.902;2023-06-22T09:02:14;7.03;;;4.60;;
38465;SDS011;24244;51.950;5.902;2023-06-22T09:04:41;5.07;;;3.75;;
38465;SDS011;24244;51.950;5.902;2023-06-22T09:07:08;6.07;;;4.20;;
38465;SDS011;24244;51.950;5.902;2023-06-22T09:09:37;5.57;;;3.88;;
38465;SDS011;24244;51.950;5.902;2023-06-22T09:12:05;7.18;;;4.35;;
38465;SDS011;24244;51.950;5.902;2023-06-22T09:14:34;8.05;;;4.65;;
38465;SDS011;24244;51.950;5.902;2023-06-22T09:17:01;6.43;;;3.63;;
38465;SDS011;24244;51.950;5.902;2023-06-22T09:19:28;5.85;;;3.78;;
38465;SDS011;24244;51.950;5.902;2023-06-22T09:21:55;5.32;;;3.53;;
38465;SDS011;24244;51.950;5.902;2023-06-22T09:24:21;7.25;;;4.43;;
38465;SDS011;24244;51.950;5.902;2023-06-22T09:26:51;6.25;;;3.78;;
38465;SDS011;24244;51.950;5.902;2023-06-22T09:29:19;6.18;;;4.22;;
38465;SDS011;24244;51.950;5.902;2023-06-22T09:31:46;6.00;;;4.18;;
38465;SDS011;24244;51.950;5.902;2023-06-22T09:34:15;6.55;;;4.22;;
38465;SDS011;24244;51.950;5.902;2023-06-22T09:36:46;5.35;;;3.47;;
38465;SDS011;24244;51.950;5.902;2023-06-22T09:39:13;4.18;;;3.10;;
38465;SDS011;24244;51.950;5.902;2023-06-22T09:41:40;4.28;;;2.85;;
38465;SDS011;24244;51.950;5.902;2023-06-22T09:44:08;6.60;;;4.00;;
38465;SDS011;24244;51.950;5.902;2023-06-22T09:46:35;5.03;;;3.45;;
38465;SDS011;24244;51.950;5.902;2023-06-22T09:49:02;5.57;;;3.03;;
38465;SDS011;24244;51.950;5.902;2023-06-22T09:51:29;7.22;;;4.32;;
38465;SDS011;24244;51.950;5.902;2023-06-22T09:53:56;4.88;;;3.38;;
38465;SDS011;24244;51.950;5.902;2023-06-22T09:56:23;6.82;;;4.70;;
38465;SDS011;24244;51.950;5.902;2023-06-22T09:58:51;7.93;;;5.03;;
38465;SDS011;24244;51.950;5.902;2023-06-22T10:01:22;8.95;;;4.03;;
38465;SDS011;24244;51.950;5.902;2023-06-22T10:03:49;4.47;;;3.30;;
38465;SDS011;24244;51.950;5.902;2023-06-22T10:06:16;4.60;;;3.05;;
38465;SDS011;24244;51.950;5.902;2023-06-22T10:08:45;4.63;;;3.20;;
38465;SDS011;24244;51.950;5.902;2023-06-22T10:11:11;3.53;;;2.40;;
38465;SDS011;24244;51.950;5.902;2023-06-22T10:13:38;3.80;;;2.30;;
38465;SDS011;24244;51.950;5.902;2023-06-22T10:16:05;5.60;;;3.05;;
38465;SDS011;24244;51.950;5.902;2023-06-22T10:18:34;6.85;;;3.63;;
38465;SDS011;24244;51.950;5.902;2023-06-22T10:21:01;6.13;;;4.05;;
38465;SDS011;24244;51.950;5.902;2023-06-22T10:23:29;3.78;;;2.50;;
38465;SDS011;24244;51.950;5.902;2023-06-22T10:25:57;5.82;;;3.15;;
38465;SDS011;24244;51.950;5.902;2023-06-22T10:28:24;5.57;;;3.20;;
38465;SDS011;24244;51.950;5.902;2023-06-22T10:30:51;4.68;;;2.55;;
38465;SDS011;24244;51.950;5.902;2023-06-22T10:33:18;5.93;;;2.60;;
38465;SDS011;24244;51.950;5.902;2023-06-22T10:35:47;4.75;;;2.72;;
38465;SDS011;24244;51.950;5.902;2023-06-22T10:38:13;6.32;;;2.60;;
38465;SDS011;24244;51.950;5.902;2023-06-22T10:40:40;6.13;;;4.13;;
38465;SDS011;24244;51.950;5.902;2023-06-22T10:43:07;5.03;;;3.22;;
38465;SDS011;24244;51.950;5.902;2023-06-22T10:45:34;5.15;;;3.20;;
38465;SDS011;24244;51.950;5.902;2023-06-22T10:48:01;4.60;;;3.08;;
38465;SDS011;24244;51.950;5.902;2023-06-22T10:50:34;5.47;;;4.38;;
38465;SDS011;24244;51.950;5.902;2023-06-22T10:53:02;7.07;;;4.55;;
38465;SDS011;24244;51.950;5.902;2023-06-22T10:55:29;6.82;;;4.60;;
38465;SDS011;24244;51.950;5.902;2023-06-22T10:58:17;5.85;;;4.43;;
38465;SDS011;24244;51.950;5.902;2023-06-22T11:00:44;6.60;;;3.95;;
38465;SDS011;24244;51.950;5.902;2023-06-22T11:03:12;6.13;;;4.40;;
38465;SDS011;24244;51.950;5.902;2023-06-22T11:05:42;6.32;;;4.95;;
38465;SDS011;24244;51.950;5.902;2023-06-22T11:08:10;5.60;;;3.90;;
38465;SDS011;24244;51.950;5.902;2023-06-22T11:10:40;5.00;;;3.25;;
38465;SDS011;24244;51.950;5.902;2023-06-22T11:13:08;5.78;;;4.43;;
38465;SDS011;24244;51.950;5.902;2023-06-22T11:15:38;6.13;;;4.30;;
38465;SDS011;24244;51.950;5.902;2023-06-22T11:18:05;6.22;;;4.78;;
38465;SDS011;24244;51.950;5.902;2023-06-22T11:20:33;6.85;;;4.95;;
38465;SDS011;24244;51.950;5.902;2023-06-22T11:23:05;6.30;;;3.80;;
38465;SDS011;24244;51.950;5.902;2023-06-22T11:25:36;8.98;;;5.70;;
38465;SDS011;24244;51.950;5.902;2023-06-22T11:28:04;8.77;;;5.63;;
38465;SDS011;24244;51.950;5.902;2023-06-22T11:30:31;7.93;;;5.90;;
38465;SDS011;24244;51.950;5.902;2023-06-22T11:32:59;7.28;;;5.57;;
38465;SDS011;24244;51.950;5.902;2023-06-22T11:35:27;5.85;;;4.28;;
38465;SDS011;24244;51.950;5.902;2023-06-22T11:37:54;8.15;;;4.88;;
38465;SDS011;24244;51.950;5.902;2023-06-22T11:40:22;10.57;;;6.22;;
38465;SDS011;24244;51.950;5.902;2023-06-22T11:42:50;6.63;;;5.00;;
38465;SDS011;24244;51.950;5.902;2023-06-22T11:45:18;8.73;;;5.68;;
38465;SDS011;24244;51.950;5.902;2023-06-22T11:47:49;6.25;;;5.10;;
38465;SDS011;24244;51.950;5.902;2023-06-22T11:50:17;8.63;;;6.13;;
38465;SDS011;24244;51.950;5.902;2023-06-22T11:52:43;6.88;;;5.10;;
38465;SDS011;24244;51.950;5.902;2023-06-22T11:55:10;6.32;;;4.25;;
38465;SDS011;24244;51.950;5.902;2023-06-22T11:57:38;9.05;;;6.40;;
38465;SDS011;24244;51.950;5.902;2023-06-22T12:00:19;10.52;;;6.57;;
38465;SDS011;24244;51.950;5.902;2023-06-22T12:02:47;12.10;;;6.32;;
38465;SDS011;24244;51.950;5.902;2023-06-22T12:05:13;7.90;;;6.00;;
38465;SDS011;24244;51.950;5.902;2023-06-22T12:07:40;8.80;;;5.40;;
38465;SDS011;24244;51.950;5.902;2023-06-22T12:10:07;6.97;;;5.53;;
38465;SDS011;24244;51.950;5.902;2023-06-22T12:12:35;8.50;;;6.57;;
38465;SDS011;24244;51.950;5.902;2023-06-22T12:15:02;7.70;;;5.93;;
38465;SDS011;24244;51.950;5.902;2023-06-22T12:17:31;7.35;;;5.35;;
38465;SDS011;24244;51.950;5.902;2023-06-22T12:19:58;6.32;;;4.78;;
38465;SDS011;24244;51.950;5.902;2023-06-22T12:22:25;8.60;;;7.18;;
38465;SDS011;24244;51.950;5.902;2023-06-22T12:24:52;7.40;;;5.32;;
38465;SDS011;24244;51.950;5.902;2023-06-22T12:27:18;7.25;;;5.32;;
38465;SDS011;24244;51.950;5.902;2023-06-22T12:29:45;6.18;;;4.45;;
38465;SDS011;24244;51.950;5.902;2023-06-22T12:32:13;7.32;;;5.40;;
38465;SDS011;24244;51.950;5.902;2023-06-22T12:34:42;7.90;;;5.85;;
38465;SDS011;24244;51.950;5.902;2023-06-22T12:37:09;7.05;;;5.05;;
38465;SDS011;24244;51.950;5.902;2023-06-22T12:39:36;7.00;;;5.07;;
38465;SDS011;24244;51.950;5.902;2023-06-22T12:42:03;7.95;;;5.32;;
38465;SDS011;24244;51.950;5.902;2023-06-22T12:44:31;9.63;;;5.88;;
38465;SDS011;24244;51.950;5.902;2023-06-22T12:46:57;9.13;;;6.55;;
38465;SDS011;24244;51.950;5.902;2023-06-22T12:49:24;7.57;;;5.45;;
38465;SDS011;24244;51.950;5.902;2023-06-22T12:51:52;8.63;;;6.68;;
38465;SDS011;24244;51.950;5.902;2023-06-22T12:54:19;10.50;;;8.30;;
38465;SDS011;24244;51.950;5.902;2023-06-22T12:56:46;12.07;;;9.88;;
38465;SDS011;24244;51.950;5.902;2023-06-22T12:59:13;12.75;;;9.18;;
38465;SDS011;24244;51.950;5.902;2023-06-22T13:01:40;10.80;;;8.50;;
38465;SDS011;24244;51.950;5.902;2023-06-22T13:04:07;11.10;;;8.38;;
38465;SDS011;24244;51.950;5.902;2023-06-22T13:06:34;9.55;;;7.97;;
38465;SDS011;24244;51.950;5.902;2023-06-22T13:09:02;8.70;;;7.38;;
38465;SDS011;24244;51.950;5.902;2023-06-22T13:11:34;10.20;;;7.70;;
38465;SDS011;24244;51.950;5.902;2023-06-22T13:14:01;10.98;;;7.35;;
38465;SDS011;24244;51.950;5.902;2023-06-22T13:16:31;9.50;;;7.22;;
38465;SDS011;24244;51.950;5.902;2023-06-22T13:18:59;9.38;;;7.57;;
38465;SDS011;24244;51.950;5.902;2023-06-22T13:21:26;11.57;;;9.18;;
38465;SDS011;24244;51.950;5.902;2023-06-22T13:23:53;11.40;;;8.90;;
38465;SDS011;24244;51.950;5.902;2023-06-22T13:26:21;11.65;;;8.52;;
38465;SDS011;24244;51.950;5.902;2023-06-22T13:28:48;12.05;;;8.70;;
38465;SDS011;24244;51.950;5.902;2023-06-22T13:31:15;15.80;;;12.05;;
38465;SDS011;24244;51.950;5.902;2023-06-22T13:33:42;15.65;;;11.32;;
38465;SDS011;24244;51.950;5.902;2023-06-22T13:36:12;15.25;;;10.27;;
38465;SDS011;24244;51.950;5.902;2023-06-22T13:38:38;15.25;;;11.68;;
38465;SDS011;24244;51.950;5.902;2023-06-22T13:41:05;14.77;;;11.35;;
38465;SDS011;24244;51.950;5.902;2023-06-22T13:43:34;13.48;;;10.70;;
38465;SDS011;24244;51.950;5.902;2023-06-22T13:46:00;15.80;;;11.43;;
38465;SDS011;24244;51.950;5.902;2023-06-22T13:48:27;16.15;;;12.55;;
38465;SDS011;24244;51.950;5.902;2023-06-22T13:50:54;17.23;;;13.52;;
38465;SDS011;24244;51.950;5.902;2023-06-22T13:53:21;15.85;;;12.73;;
38465;SDS011;24244;51.950;5.902;2023-06-22T13:55:48;14.98;;;10.55;;
38465;SDS011;24244;51.950;5.902;2023-06-22T13:58:15;16.08;;;11.88;;
38465;SDS011;24244;51.950;5.902;2023-06-22T14:00:43;13.88;;;10.88;;
38465;SDS011;24244;51.950;5.902;2023-06-22T14:03:11;14.88;;;10.75;;
38465;SDS011;24244;51.950;5.902;2023-06-22T14:05:38;20.55;;;15.93;;
38465;SDS011;24244;51.950;5.902;2023-06-22T14:08:07;16.00;;;11.85;;
38465;SDS011;24244;51.950;5.902;2023-06-22T14:10:54;16.08;;;13.23;;
38465;SDS011;24244;51.950;5.902;2023-06-22T14:13:20;18.63;;;14.40;;
38465;SDS011;24244;51.950;5.902;2023-06-22T14:15:49;16.30;;;12.32;;
38465;SDS011;24244;51.950;5.902;2023-06-22T14:18:18;16.77;;;12.95;;
38465;SDS011;24244;51.950;5.902;2023-06-22T14:20:45;21.98;;;16.33;;
38465;SDS011;24244;51.950;5.902;2023-06-22T14:23:14;17.17;;;13.02;;
38465;SDS011;24244;51.950;5.902;2023-06-22T14:25:41;14.52;;;10.82;;
38465;SDS011;24244;51.950;5.902;2023-06-22T14:28:08;15.80;;;11.40;;
38465;SDS011;24244;51.950;5.902;2023-06-22T14:30:37;14.55;;;11.70;;
38465;SDS011;24244;51.950;5.902;2023-06-22T14:33:06;21.75;;;16.63;;
38465;SDS011;24244;51.950;5.902;2023-06-22T14:35:33;18.80;;;13.63;;
38465;SDS011;24244;51.950;5.902;2023-06-22T14:38:13;14.95;;;10.85;;
38465;SDS011;24244;51.950;5.902;2023-06-22T14:41:04;16.90;;;13.30;;
38465;SDS011;24244;51.950;5.902;2023-06-22T14:43:43;16.25;;;11.93;;
38465;SDS011;24244;51.950;5.902;2023-06-22T14:46:11;15.82;;;11.25;;
38465;SDS011;24244;51.950;5.902;2023-06-22T14:48:40;15.30;;;11.38;;